createdAt,value
2023-07-18T00:02:23.024Z,101726.59
2023-07-18T00:04:50.654Z,101719.72
2023-07-18T00:07:17.923Z,101723.72
2023-07-18T00:09:45.581Z,101715.31
2023-07-18T00:12:14.906Z,101713.31
2023-07-18T00:14:43.426Z,101715.78
2023-07-18T00:17:15.983Z,101713.22
2023-07-18T00:19:43.281Z,101717.41
2023-07-18T00:22:10.953Z,101720.53
2023-07-18T00:24:38.425Z,101722.16
2023-07-18T00:27:06.573Z,101722.16
2023-07-18T00:29:35.629Z,101732.94
2023-07-18T00:32:03.949Z,101728.41
2023-07-18T00:34:31.604Z,101728.34
2023-07-18T00:36:59.183Z,101727.50
2023-07-18T00:39:27.285Z,101729.34
2023-07-18T00:41:54.859Z,101732.00
2023-07-18T00:44:22.405Z,101729.72
2023-07-18T00:46:52.304Z,101729.28
2023-07-18T00:49:22.793Z,101732.75
2023-07-18T00:51:50.788Z,101735.56
2023-07-18T00:54:18.951Z,101737.56
2023-07-18T00:56:46.748Z,101739.53
2023-07-18T00:59:17.399Z,101734.88
2023-07-18T01:01:46.492Z,101743.63
2023-07-18T01:04:16.812Z,101739.38
2023-07-18T01:06:45.924Z,101738.00
2023-07-18T01:09:14.672Z,101733.88
2023-07-18T01:11:43.392Z,101737.13
2023-07-18T01:14:10.980Z,101733.97
2023-07-18T01:16:38.596Z,101731.44
2023-07-18T01:19:06.046Z,101727.16
2023-07-18T01:21:34.919Z,101727.94
2023-07-18T01:24:04.786Z,101725.63
2023-07-18T01:26:32.416Z,101724.03
2023-07-18T01:28:59.810Z,101725.44
2023-07-18T01:31:27.527Z,101731.09
2023-07-18T01:33:55.167Z,101730.78
2023-07-18T01:36:22.506Z,101739.78
2023-07-18T01:38:52.291Z,101736.81
2023-07-18T01:41:21.546Z,101745.81
2023-07-18T01:43:49.127Z,101735.44
2023-07-18T01:46:17.216Z,101735.34
2023-07-18T01:48:44.497Z,101739.44
2023-07-18T01:51:11.891Z,101749.72
2023-07-18T01:53:39.932Z,101751.44
2023-07-18T01:56:08.661Z,101741.25
2023-07-18T01:58:36.594Z,101738.28
2023-07-18T02:01:04.002Z,101743.09
2023-07-18T02:03:31.927Z,101750.25
2023-07-18T02:05:59.190Z,101744.22
2023-07-18T02:08:28.154Z,101748.09
2023-07-18T02:10:55.842Z,101753.91
2023-07-18T02:13:24.888Z,101752.94
2023-07-18T02:15:52.464Z,101762.34
2023-07-18T02:18:20.109Z,101757.44
2023-07-18T02:20:47.454Z,101767.53
2023-07-18T02:23:14.805Z,101760.94
2023-07-18T02:25:42.866Z,101767.53
2023-07-18T02:28:10.224Z,101766.13
2023-07-18T02:30:50.135Z,101776.50
2023-07-18T02:33:17.586Z,101776.50
2023-07-18T02:35:49.159Z,101781.69
2023-07-18T02:38:17.082Z,101790.25
2023-07-18T02:40:44.772Z,101787.44
2023-07-18T02:43:12.082Z,101796.56
2023-07-18T02:45:43.281Z,101794.19
2023-07-18T02:48:10.654Z,101804.56
2023-07-18T02:50:38.278Z,101802.03
2023-07-18T02:53:05.647Z,101806.81
2023-07-18T02:55:33.551Z,101802.59
2023-07-18T02:58:01.150Z,101805.31
2023-07-18T03:00:28.491Z,101802.66
2023-07-18T03:02:57.706Z,101809.38
2023-07-18T03:05:27.497Z,101801.34
2023-07-18T03:07:55.020Z,101803.59
2023-07-18T03:10:23.260Z,101799.53
2023-07-18T03:15:31.765Z,101802.22
2023-07-18T03:18:03.695Z,101804.34
2023-07-18T03:20:31.383Z,101799.56
2023-07-18T03:23:00.588Z,101802.41
2023-07-18T03:25:28.104Z,101809.81
2023-07-18T03:27:55.633Z,101810.50
2023-07-18T03:30:23.821Z,101816.69
2023-07-18T03:32:51.837Z,101808.31
2023-07-18T03:35:20.651Z,101810.53
2023-07-18T03:37:47.869Z,101805.19
2023-07-18T03:40:15.550Z,101808.28
2023-07-18T03:42:43.286Z,101805.47
2023-07-18T03:45:12.413Z,101814.16
2023-07-18T03:47:40.402Z,101809.13
2023-07-18T03:50:09.500Z,101807.72
2023-07-18T03:52:38.775Z,101810.50
2023-07-18T03:55:07.330Z,101815.00
2023-07-18T03:57:36.707Z,101818.94
2023-07-18T04:00:06.871Z,101817.97
2023-07-18T04:02:34.486Z,101814.88
2023-07-18T04:05:01.935Z,101811.22
2023-07-18T04:07:29.631Z,101820.63
2023-07-18T04:09:58.449Z,101819.06
2023-07-18T04:12:26.019Z,101816.53
2023-07-18T04:14:53.399Z,101814.84
2023-07-18T04:17:21.037Z,101818.06
2023-07-18T04:19:48.491Z,101819.91
2023-07-18T04:22:15.950Z,101820.59
2023-07-18T04:24:43.586Z,101824.38
2023-07-18T04:27:13.427Z,101823.78
2023-07-18T04:29:40.756Z,101820.56
2023-07-18T04:32:08.981Z,101817.91
2023-07-18T04:34:36.670Z,101814.13
2023-07-18T04:37:05.155Z,101824.22
2023-07-18T04:39:32.542Z,101816.06
2023-07-18T04:41:59.824Z,101826.28
2023-07-18T04:44:36.989Z,101815.59
2023-07-18T04:47:06.740Z,101813.28
2023-07-18T04:49:34.117Z,101817.06
2023-07-18T04:52:02.055Z,101819.00
2023-07-18T04:54:30.135Z,101823.19
2023-07-18T04:56:57.457Z,101814.22
2023-07-18T04:59:25.028Z,101820.03
2023-07-18T05:01:55.046Z,101809.56
2023-07-18T05:04:23.079Z,101820.59
2023-07-18T05:06:50.663Z,101811.69
2023-07-18T05:09:18.442Z,101820.50
2023-07-18T05:11:47.781Z,101818.00
2023-07-18T05:14:15.500Z,101825.56
2023-07-18T05:16:43.840Z,101829.06
2023-07-18T05:19:14.379Z,101822.09
2023-07-18T05:21:41.991Z,101824.06
2023-07-18T05:24:09.549Z,101824.81
2023-07-18T05:26:37.252Z,101823.56
2023-07-18T05:29:04.942Z,101822.56
2023-07-18T05:31:33.412Z,101823.78
2023-07-18T05:34:00.779Z,101831.81
2023-07-18T05:36:29.849Z,101837.69
2023-07-18T05:38:57.195Z,101835.94
2023-07-18T05:41:25.306Z,101831.03
2023-07-18T05:43:53.022Z,101830.97
2023-07-18T05:46:21.317Z,101823.22
2023-07-18T05:48:48.778Z,101831.38
2023-07-18T05:51:17.424Z,101822.38
2023-07-18T05:53:51.903Z,101820.03
2023-07-18T05:56:19.609Z,101822.09
2023-07-18T05:58:47.272Z,101827.75
2023-07-18T06:01:14.721Z,101818.75
2023-07-18T06:03:49.867Z,101816.72
2023-07-18T06:06:17.607Z,101810.09
2023-07-18T06:08:46.474Z,101810.28
2023-07-18T06:11:15.535Z,101813.16
2023-07-18T06:13:43.911Z,101817.66
2023-07-18T06:16:11.603Z,101810.47
2023-07-18T06:18:39.009Z,101822.19
2023-07-18T06:21:06.251Z,101816.16
2023-07-18T06:23:33.605Z,101810.47
2023-07-18T06:26:02.317Z,101817.16
2023-07-18T06:28:29.912Z,101821.84
2023-07-18T06:30:58.933Z,101832.25
2023-07-18T06:33:26.532Z,101823.97
2023-07-18T06:35:54.512Z,101825.75
2023-07-18T06:38:21.994Z,101825.88
2023-07-18T06:40:50.439Z,101833.09
2023-07-18T06:43:19.802Z,101833.66
2023-07-18T06:45:48.808Z,101832.66
2023-07-18T06:48:17.829Z,101835.28
2023-07-18T06:50:46.048Z,101834.78
2023-07-18T06:55:55.221Z,101838.72
2023-07-18T06:58:24.052Z,101827.28
2023-07-18T07:00:57.158Z,101825.34
2023-07-18T07:03:25.788Z,101816.53
2023-07-18T07:05:55.665Z,101824.13
2023-07-18T07:08:23.329Z,101818.09
2023-07-18T07:10:50.510Z,101818.34
2023-07-18T07:13:18.011Z,101819.53
2023-07-18T07:15:47.167Z,101809.19
2023-07-18T07:18:14.561Z,101819.53
2023-07-18T07:20:41.981Z,101814.41
2023-07-18T07:23:09.397Z,101814.88
2023-07-18T07:25:36.987Z,101817.31
2023-07-18T07:28:05.017Z,101807.63
2023-07-18T07:30:32.478Z,101814.69
2023-07-18T07:33:01.370Z,101818.16
2023-07-18T07:35:28.767Z,101824.56
2023-07-18T07:37:56.762Z,101823.44
2023-07-18T07:40:24.521Z,101816.56
2023-07-18T07:42:52.107Z,101820.00
2023-07-18T07:45:19.846Z,101815.66
2023-07-18T07:47:47.824Z,101812.84
2023-07-18T07:50:16.817Z,101818.91
2023-07-18T07:52:44.126Z,101812.97
2023-07-18T07:55:15.791Z,101811.00
2023-07-18T07:57:43.897Z,101809.88
2023-07-18T08:00:12.794Z,101805.06
2023-07-18T08:02:42.097Z,101800.31
2023-07-18T08:05:09.725Z,101800.50
2023-07-18T08:07:39.278Z,101800.22
2023-07-18T08:10:07.429Z,101797.06
2023-07-18T08:12:34.704Z,101802.63
2023-07-18T08:15:02.120Z,101796.03
2023-07-18T08:17:32.241Z,101797.69
2023-07-18T08:20:00.404Z,101795.94
2023-07-18T08:22:28.879Z,101794.09
2023-07-18T08:24:57.843Z,101792.63
2023-07-18T08:27:25.104Z,101793.53
2023-07-18T08:29:52.514Z,101782.16
2023-07-18T08:32:19.945Z,101783.75
2023-07-18T08:34:47.543Z,101792.38
2023-07-18T08:37:16.952Z,101789.78
2023-07-18T08:39:44.145Z,101782.50
2023-07-18T08:42:14.809Z,101780.06
2023-07-18T08:44:43.722Z,101783.69
2023-07-18T08:47:12.956Z,101772.44
2023-07-18T08:49:41.458Z,101782.22
2023-07-18T08:52:09.173Z,101768.53
2023-07-18T08:54:36.720Z,101764.28
2023-07-18T08:57:05.101Z,101762.00
2023-07-18T08:59:34.240Z,101760.94
2023-07-18T09:02:01.848Z,101758.13
2023-07-18T09:04:30.020Z,101756.50
2023-07-18T09:07:00.567Z,101752.38
2023-07-18T09:09:28.564Z,101745.19
2023-07-18T09:12:01.817Z,101753.19
2023-07-18T09:14:35.582Z,101752.06
2023-07-18T09:17:06.162Z,101742.75
2023-07-18T09:19:37.935Z,101737.41
2023-07-18T09:22:07.104Z,101739.34
2023-07-18T09:24:35.129Z,101735.16
2023-07-18T09:27:03.157Z,101735.44
2023-07-18T09:29:30.513Z,101728.63
2023-07-18T09:32:00.152Z,101729.47
2023-07-18T09:34:28.603Z,101722.69
2023-07-18T09:36:57.594Z,101724.19
2023-07-18T09:39:26.271Z,101717.13
2023-07-18T09:41:54.276Z,101720.84
2023-07-18T09:44:32.542Z,101719.59
2023-07-18T09:47:02.792Z,101721.25
2023-07-18T09:49:34.003Z,101712.75
2023-07-18T09:52:08.166Z,101720.78
2023-07-18T09:54:35.633Z,101707.34
2023-07-18T09:57:05.560Z,101712.19
2023-07-18T09:59:36.402Z,101706.66
2023-07-18T10:02:06.623Z,101695.47
2023-07-18T10:04:34.688Z,101695.00
2023-07-18T10:07:03.340Z,101697.94
2023-07-18T10:09:33.172Z,101700.91
2023-07-18T10:12:11.683Z,101699.28
2023-07-18T10:14:51.210Z,101696.16
2023-07-18T10:17:40.513Z,101703.22
2023-07-18T10:20:12.800Z,101701.31
2023-07-18T10:22:47.738Z,101697.84
2023-07-18T10:25:20.379Z,101698.00
2023-07-18T10:27:49.387Z,101695.25
2023-07-18T10:30:18.766Z,101684.53
2023-07-18T10:32:54.834Z,101688.25
2023-07-18T10:35:23.701Z,101665.25
2023-07-18T10:37:53.461Z,101674.16
2023-07-18T10:40:35.738Z,101670.41
2023-07-18T10:43:03.456Z,101663.50
2023-07-18T10:45:40.041Z,101654.34
2023-07-18T10:48:29.386Z,101652.66
2023-07-18T10:50:57.037Z,101653.03
2023-07-18T10:53:25.420Z,101652.09
2023-07-18T10:55:53.946Z,101645.19
2023-07-18T10:58:22.228Z,101642.06
2023-07-18T11:00:51.375Z,101641.75
2023-07-18T11:03:21.598Z,101644.31
2023-07-18T11:05:51.676Z,101641.28
2023-07-18T11:08:25.980Z,101632.94
2023-07-18T11:10:58.714Z,101618.69
2023-07-18T11:13:29.985Z,101624.19
2023-07-18T11:15:58.330Z,101616.63
2023-07-18T11:18:26.768Z,101615.44
2023-07-18T11:20:56.991Z,101606.63
2023-07-18T11:23:25.038Z,101607.63
2023-07-18T11:25:53.162Z,101604.06
2023-07-18T11:28:20.749Z,101607.38
2023-07-18T11:30:48.963Z,101589.44
2023-07-18T11:33:16.640Z,101597.28
2023-07-18T11:35:49.163Z,101589.66
2023-07-18T11:38:19.161Z,101583.03
2023-07-18T11:40:46.780Z,101588.31
2023-07-18T11:43:18.537Z,101585.88
2023-07-18T11:45:45.971Z,101583.13
2023-07-18T11:48:14.311Z,101587.09
2023-07-18T11:50:44.223Z,101586.78
2023-07-18T11:53:14.000Z,101578.03
2023-07-18T11:55:43.063Z,101575.94
2023-07-18T11:58:10.367Z,101577.03
2023-07-18T12:00:38.217Z,101573.41
2023-07-18T12:03:06.721Z,101570.19
2023-07-18T12:05:34.436Z,101575.03
2023-07-18T12:08:02.024Z,101574.00
2023-07-18T12:10:29.698Z,101566.69
2023-07-18T12:12:58.960Z,101568.09
2023-07-18T12:15:26.288Z,101565.53
2023-07-18T12:17:54.158Z,101559.78
2023-07-18T12:20:21.385Z,101569.31
2023-07-18T12:22:48.980Z,101563.59
2023-07-18T12:25:16.722Z,101562.00
2023-07-18T12:27:44.058Z,101567.94
2023-07-18T12:30:13.918Z,101555.88
2023-07-18T12:35:22.653Z,101554.56
2023-07-18T12:37:50.030Z,101556.06
2023-07-18T12:40:17.986Z,101549.13
2023-07-18T12:42:45.913Z,101543.44
2023-07-18T12:45:15.975Z,101544.59
2023-07-18T12:47:43.305Z,101537.31
2023-07-18T12:50:12.688Z,101533.72
2023-07-18T12:52:40.374Z,101538.56
2023-07-18T12:55:08.868Z,101535.25
2023-07-18T12:57:37.958Z,101536.16
2023-07-18T13:00:07.044Z,101519.31
2023-07-18T13:02:37.366Z,101530.56
2023-07-18T13:05:05.261Z,101528.34
2023-07-18T13:07:34.197Z,101524.81
2023-07-18T13:10:01.925Z,101522.81
2023-07-18T13:12:30.594Z,101523.34
2023-07-18T13:14:58.267Z,101521.91
2023-07-18T13:17:26.063Z,101513.97
2023-07-18T13:19:55.841Z,101513.34
2023-07-18T13:22:23.441Z,101514.66
2023-07-18T13:24:50.988Z,101519.06
2023-07-18T13:27:18.579Z,101514.03
2023-07-18T13:29:45.835Z,101512.25
2023-07-18T13:32:14.755Z,101507.84
2023-07-18T13:34:44.668Z,101507.38
2023-07-18T13:37:15.348Z,101498.34
2023-07-18T13:39:43.515Z,101497.38
2023-07-18T13:42:10.962Z,101494.94
2023-07-18T13:44:39.454Z,101493.25
2023-07-18T13:47:07.364Z,101490.84
2023-07-18T13:52:06.018Z,101484.84
2023-07-18T13:54:36.166Z,101478.69
2023-07-18T13:57:05.361Z,101482.34
2023-07-18T13:59:33.039Z,101474.63
2023-07-18T14:02:00.473Z,101468.13
2023-07-18T14:04:27.932Z,101464.44
2023-07-18T14:06:55.356Z,101463.00
2023-07-18T14:09:22.790Z,101454.38
2023-07-18T14:11:52.154Z,101444.19
2023-07-18T14:14:21.281Z,101453.59
2023-07-18T14:16:49.221Z,101450.94
2023-07-18T14:19:17.270Z,101448.84
2023-07-18T14:21:53.095Z,101444.03
2023-07-18T14:24:22.218Z,101435.91
2023-07-18T14:26:52.756Z,101434.50
2023-07-18T14:29:20.447Z,101438.13
2023-07-18T14:31:48.175Z,101430.81
2023-07-18T14:34:15.685Z,101427.13
2023-07-18T14:36:43.283Z,101416.81
2023-07-18T14:39:10.948Z,101405.88
2023-07-18T14:41:39.204Z,101405.50
2023-07-18T14:44:08.485Z,101402.34
2023-07-18T14:46:36.171Z,101392.25
2023-07-18T14:49:03.905Z,101397.03
2023-07-18T14:51:32.954Z,101391.41
2023-07-18T14:54:00.560Z,101385.59
2023-07-18T14:56:28.213Z,101384.94
2023-07-18T14:58:55.790Z,101379.28
2023-07-18T15:01:24.844Z,101373.28
2023-07-18T15:03:52.639Z,101380.56
2023-07-18T15:06:20.691Z,101372.13
2023-07-18T15:08:52.138Z,101364.16
2023-07-18T15:11:23.564Z,101364.97
2023-07-18T15:13:51.496Z,101364.66
2023-07-18T15:16:19.891Z,101358.56
2023-07-18T15:18:49.902Z,101353.31
2023-07-18T15:21:17.596Z,101353.94
2023-07-18T15:23:45.050Z,101358.44
2023-07-18T15:26:13.446Z,101353.50
2023-07-18T15:28:40.766Z,101345.22
2023-07-18T15:31:08.025Z,101340.03
2023-07-18T15:33:35.623Z,101348.16
2023-07-18T15:36:05.968Z,101345.75
2023-07-18T15:38:33.761Z,101341.28
2023-07-18T15:41:01.091Z,101336.81
2023-07-18T15:43:28.758Z,101352.75
2023-07-18T15:45:56.940Z,101346.13
2023-07-18T15:48:25.108Z,101339.97
2023-07-18T15:50:53.046Z,101340.13
2023-07-18T15:53:22.697Z,101337.78
2023-07-18T15:55:51.195Z,101341.63
2023-07-18T15:58:20.179Z,101337.78
2023-07-18T16:00:48.226Z,101346.59
2023-07-18T16:03:15.969Z,101342.97
2023-07-18T16:05:44.666Z,101333.25
2023-07-18T16:08:12.397Z,101338.84
2023-07-18T16:10:41.367Z,101336.84
2023-07-18T16:13:10.437Z,101332.56
2023-07-18T16:15:38.269Z,101330.88
2023-07-18T16:18:06.016Z,101328.16
2023-07-18T16:20:33.549Z,101337.59
2023-07-18T16:23:01.166Z,101331.88
2023-07-18T16:25:28.762Z,101332.63
2023-07-18T16:27:57.937Z,101317.34
2023-07-18T16:30:25.714Z,101322.78
2023-07-18T16:32:53.188Z,101315.81
2023-07-18T16:35:20.856Z,101312.94
2023-07-18T16:37:49.008Z,101309.69
2023-07-18T16:40:16.434Z,101314.28
2023-07-18T16:42:43.901Z,101314.34
2023-07-18T16:45:13.305Z,101317.41
2023-07-18T16:47:41.021Z,101308.03
2023-07-18T16:50:09.304Z,101303.06
2023-07-18T16:52:36.906Z,101306.25
2023-07-18T16:55:05.493Z,101304.13
2023-07-18T16:57:32.800Z,101294.50
2023-07-18T17:00:00.332Z,101300.88
2023-07-18T17:02:29.618Z,101291.13
2023-07-18T17:04:58.577Z,101278.66
2023-07-18T17:07:25.975Z,101282.22
2023-07-18T17:09:53.272Z,101284.25
2023-07-18T17:12:20.683Z,101282.00
2023-07-18T17:14:48.257Z,101281.34
2023-07-18T17:17:15.777Z,101274.28
2023-07-18T17:19:58.926Z,101255.34
2023-07-18T17:22:35.435Z,101254.06
2023-07-18T17:25:06.672Z,101252.75
2023-07-18T17:27:34.263Z,101256.53
2023-07-18T17:30:01.955Z,101249.69
2023-07-18T17:32:29.603Z,101255.88
2023-07-18T17:34:58.614Z,101254.50
2023-07-18T17:37:26.222Z,101243.94
2023-07-18T17:42:34.984Z,101235.56
2023-07-18T17:45:02.684Z,101221.16
2023-07-18T17:47:30.100Z,101218.19
2023-07-18T17:50:06.944Z,101228.19
2023-07-18T17:52:34.993Z,101221.94
2023-07-18T17:55:02.360Z,101224.03
2023-07-18T17:57:29.663Z,101222.38
2023-07-18T17:59:57.005Z,101209.28
2023-07-18T18:02:25.192Z,101207.00
2023-07-18T18:04:57.103Z,101205.78
2023-07-18T18:07:27.474Z,101205.22
2023-07-18T18:09:55.698Z,101203.63
2023-07-18T18:12:22.993Z,101194.25
2023-07-18T18:14:51.231Z,101194.34
2023-07-18T18:17:19.329Z,101189.44
2023-07-18T18:19:47.885Z,101188.97
2023-07-18T18:22:15.531Z,101191.75
2023-07-18T18:24:44.880Z,101192.59
2023-07-18T18:27:12.536Z,101189.56
2023-07-18T18:29:40.965Z,101181.69
2023-07-18T18:32:09.267Z,101180.06
2023-07-18T18:34:36.939Z,101181.75
2023-07-18T18:37:06.459Z,101173.13
2023-07-18T18:39:41.525Z,101173.34
2023-07-18T18:42:30.216Z,101177.72
2023-07-18T18:44:57.582Z,101180.25
2023-07-18T18:47:25.598Z,101181.75
2023-07-18T18:49:53.059Z,101187.78
2023-07-18T18:52:20.796Z,101180.94
2023-07-18T18:54:58.679Z,101184.47
2023-07-18T18:57:37.450Z,101176.59
2023-07-18T19:00:05.714Z,101180.34
2023-07-18T19:02:33.661Z,101178.50
2023-07-18T19:05:01.626Z,101181.97
2023-07-18T19:07:29.080Z,101180.75
2023-07-18T19:09:57.215Z,101182.16
2023-07-18T19:12:24.889Z,101184.84
2023-07-18T19:14:57.149Z,101189.81
2023-07-18T19:17:26.342Z,101188.56
2023-07-18T19:19:54.592Z,101193.09
2023-07-18T19:22:22.242Z,101191.63
2023-07-18T19:24:49.598Z,101191.00
2023-07-18T19:27:16.958Z,101198.19
2023-07-18T19:29:44.392Z,101198.34
2023-07-18T19:32:17.152Z,101199.53
2023-07-18T19:34:44.523Z,101205.25
2023-07-18T19:37:14.082Z,101204.16
2023-07-18T19:42:26.570Z,101208.44
2023-07-18T19:44:54.039Z,101202.56
2023-07-18T19:47:23.320Z,101206.66
2023-07-18T19:49:50.948Z,101197.56
2023-07-18T19:52:18.198Z,101206.59
2023-07-18T19:54:46.204Z,101202.44
2023-07-18T19:57:13.799Z,101205.75
2023-07-18T19:59:42.791Z,101208.09
2023-07-18T20:04:53.067Z,101202.09
2023-07-18T20:07:21.008Z,101203.63
2023-07-18T20:09:48.663Z,101196.38
2023-07-18T20:12:16.576Z,101194.81
2023-07-18T20:14:45.486Z,101194.06
2023-07-18T20:17:12.914Z,101191.50
2023-07-18T20:19:40.340Z,101191.97
2023-07-18T20:22:10.108Z,101189.28
2023-07-18T20:27:19.242Z,101200.94
2023-07-18T20:29:46.852Z,101195.59
2023-07-18T20:32:14.677Z,101202.94
2023-07-18T20:34:42.328Z,101201.25
2023-07-18T20:37:13.124Z,101192.56
2023-07-18T20:42:29.724Z,101198.50
2023-07-18T20:47:42.266Z,101198.31
2023-07-18T21:06:08.427Z,101196.16
2023-07-18T21:12:25.165Z,101192.09
2023-07-18T21:20:22.669Z,101198.25
2023-07-18T21:31:11.056Z,101199.34
2023-07-18T21:33:43.052Z,101198.00
2023-07-18T21:36:10.429Z,101195.47
2023-07-18T21:38:38.882Z,101195.94
2023-07-18T21:41:07.305Z,101203.41
2023-07-18T21:43:42.710Z,101192.69
2023-07-18T21:46:14.001Z,101190.38
2023-07-18T21:48:41.866Z,101188.34
2023-07-18T21:51:10.917Z,101187.06
2023-07-18T21:53:39.075Z,101189.47
2023-07-18T21:56:07.362Z,101183.63
2023-07-18T21:58:36.441Z,101186.13
2023-07-18T22:01:03.978Z,101191.72
2023-07-18T22:03:56.029Z,101187.81
2023-07-18T22:06:26.752Z,101194.25
2023-07-18T22:08:54.410Z,101185.16
2023-07-18T22:11:22.091Z,101181.22
2023-07-18T22:13:50.895Z,101188.50
2023-07-18T22:16:18.521Z,101178.56
2023-07-18T22:18:46.111Z,101177.47
2023-07-18T22:21:19.110Z,101172.09
2023-07-18T22:23:47.765Z,101171.66
2023-07-18T22:26:15.929Z,101161.22
2023-07-18T22:28:43.567Z,101170.16
2023-07-18T22:31:12.279Z,101170.34
2023-07-18T22:33:40.383Z,101166.69
2023-07-18T22:36:07.816Z,101165.56
2023-07-18T22:38:37.345Z,101160.41
2023-07-18T22:41:04.954Z,101158.75
2023-07-18T22:43:32.587Z,101161.63
2023-07-18T22:46:00.265Z,101158.97
2023-07-18T22:48:29.399Z,101168.66
2023-07-18T22:50:57.133Z,101157.81
2023-07-18T22:53:24.616Z,101160.47
2023-07-18T22:55:54.455Z,101161.47
2023-07-18T22:58:29.567Z,101161.84
2023-07-18T23:00:57.827Z,101159.97
2023-07-18T23:03:29.352Z,101152.78
2023-07-18T23:05:57.012Z,101148.13
2023-07-18T23:08:29.708Z,101147.44
2023-07-18T23:11:01.580Z,101150.78
2023-07-18T23:13:36.583Z,101151.66
2023-07-18T23:16:04.626Z,101148.13
2023-07-18T23:18:31.993Z,101145.50
2023-07-18T23:20:59.349Z,101153.00
2023-07-18T23:23:27.055Z,101154.81
2023-07-18T23:25:54.808Z,101143.47
2023-07-18T23:28:39.065Z,101133.56
2023-07-18T23:31:06.784Z,101127.19
2023-07-18T23:33:34.926Z,101123.41
2023-07-18T23:36:02.665Z,101125.09
2023-07-18T23:38:30.022Z,101127.75
2023-07-18T23:40:59.146Z,101123.41
2023-07-18T23:43:27.232Z,101119.00
2023-07-18T23:45:57.139Z,101116.47
2023-07-18T23:48:24.520Z,101110.38
2023-07-18T23:50:52.174Z,101117.94
2023-07-18T23:53:20.293Z,101106.09
2023-07-18T23:55:48.503Z,101109.06
2023-07-18T23:58:16.135Z,101108.41
